createdAt,value
2022-12-09T00:01:42.572Z,8.53
2022-12-09T00:04:12.846Z,9.40
2022-12-09T00:06:43.296Z,8.40
2022-12-09T00:09:18.287Z,8.37
2022-12-09T00:11:48.598Z,9.27
2022-12-09T00:14:18.870Z,8.43
2022-12-09T00:16:51.660Z,6.73
2022-12-09T00:19:22.274Z,7.87
2022-12-09T00:21:52.438Z,9.23
2022-12-09T00:24:23.992Z,7.50
2022-12-09T00:26:55.524Z,7.77
2022-12-09T00:29:28.155Z,8.33
2022-12-09T00:32:00.980Z,7.97
2022-12-09T00:34:31.273Z,9.63
2022-12-09T00:37:01.378Z,7.73
2022-12-09T00:39:31.559Z,7.87
2022-12-09T00:42:01.615Z,8.27
2022-12-09T00:44:32.457Z,9.93
2022-12-09T00:47:05.285Z,8.83
2022-12-09T00:49:35.811Z,7.63
2022-12-09T00:52:06.003Z,7.30
2022-12-09T00:54:36.402Z,7.97
2022-12-09T00:57:07.315Z,9.47
2022-12-09T00:59:37.481Z,9.43
2022-12-09T01:02:10.297Z,8.90
2022-12-09T01:04:41.835Z,8.27
2022-12-09T01:07:13.880Z,10.00
2022-12-09T01:09:44.526Z,7.20
2022-12-09T01:12:14.651Z,6.80
2022-12-09T01:14:44.736Z,9.10
2022-12-09T01:17:17.504Z,7.10
2022-12-09T01:19:48.255Z,9.07
2022-12-09T01:22:18.502Z,7.53
2022-12-09T01:24:48.575Z,10.03
2022-12-09T01:27:19.069Z,10.17
2022-12-09T01:29:49.151Z,7.73
2022-12-09T01:32:23.420Z,9.87
2022-12-09T01:34:53.700Z,6.40
2022-12-09T01:37:23.839Z,7.00
2022-12-09T01:39:53.927Z,8.77
2022-12-09T01:42:27.333Z,8.93
2022-12-09T01:45:45.886Z,8.80
2022-12-09T01:48:22.575Z,9.20
2022-12-09T01:50:58.951Z,7.30
2022-12-09T01:53:34.669Z,7.63
2022-12-09T01:56:12.020Z,8.67
2022-12-09T01:58:42.513Z,6.70
2022-12-09T02:01:16.686Z,9.77
2022-12-09T02:03:49.834Z,9.37
2022-12-09T02:06:21.112Z,7.73
2022-12-09T02:08:53.467Z,7.90
2022-12-09T02:11:38.899Z,7.77
2022-12-09T02:14:19.187Z,10.47
2022-12-09T02:17:08.833Z,7.90
2022-12-09T02:20:02.130Z,9.03
2022-12-09T02:22:40.995Z,9.90
2022-12-09T02:25:32.700Z,9.53
2022-12-09T02:28:44.189Z,9.57
2022-12-09T02:31:34.986Z,10.87
2022-12-09T02:34:17.555Z,9.33
2022-12-09T02:37:13.957Z,9.53
2022-12-09T02:39:56.665Z,8.80
2022-12-09T02:42:32.461Z,8.67
2022-12-09T02:45:07.583Z,9.77
2022-12-09T02:47:43.476Z,9.83
2022-12-09T02:50:23.970Z,9.30
2022-12-09T02:52:57.020Z,8.77
2022-12-09T02:55:28.548Z,8.50
2022-12-09T02:58:04.518Z,7.93
2022-12-09T03:00:35.026Z,8.53
2022-12-09T03:03:12.574Z,8.73
2022-12-09T03:05:55.747Z,8.87
2022-12-09T03:08:39.684Z,11.50
2022-12-09T03:11:13.709Z,8.30
2022-12-09T03:13:56.723Z,9.47
2022-12-09T03:16:36.116Z,9.70
2022-12-09T03:19:14.292Z,9.50
2022-12-09T03:21:50.966Z,10.47
2022-12-09T03:24:29.032Z,10.87
2022-12-09T03:27:03.522Z,10.10
2022-12-09T03:29:38.277Z,9.13
2022-12-09T03:32:09.067Z,9.70
2022-12-09T03:34:44.991Z,10.37
2022-12-09T03:37:21.872Z,9.63
2022-12-09T03:39:54.000Z,10.50
2022-12-09T03:42:31.265Z,10.93
2022-12-09T03:45:06.078Z,9.03
2022-12-09T03:47:36.616Z,9.87
2022-12-09T03:50:09.439Z,10.17
2022-12-09T03:52:51.192Z,11.17
2022-12-09T03:55:32.187Z,9.33
2022-12-09T03:58:07.863Z,11.33
2022-12-09T04:00:41.636Z,10.93
2022-12-09T04:03:12.037Z,8.97
2022-12-09T04:05:44.555Z,10.07
2022-12-09T04:08:17.536Z,10.73
2022-12-09T04:10:47.809Z,8.40
2022-12-09T04:13:18.613Z,10.03
2022-12-09T04:15:48.978Z,8.70
2022-12-09T04:18:19.192Z,8.10
2022-12-09T04:20:49.614Z,9.03
2022-12-09T04:23:22.323Z,11.53
2022-12-09T04:25:52.447Z,8.57
2022-12-09T04:28:22.586Z,10.37
2022-12-09T04:30:52.892Z,9.93
2022-12-09T04:33:23.014Z,9.00
2022-12-09T04:35:53.053Z,9.43
2022-12-09T04:38:25.964Z,10.30
2022-12-09T04:40:56.201Z,9.07
2022-12-09T04:43:26.372Z,8.47
2022-12-09T04:45:56.938Z,11.80
2022-12-09T04:48:27.299Z,11.20
2022-12-09T04:50:58.392Z,22.90
2022-12-09T04:53:34.313Z,12.17
2022-12-09T04:56:07.237Z,10.67
2022-12-09T04:58:37.789Z,9.33
2022-12-09T05:01:16.344Z,12.50
2022-12-09T05:03:51.846Z,9.97
2022-12-09T05:06:26.251Z,10.97
2022-12-09T05:08:59.633Z,9.93
2022-12-09T05:11:29.898Z,9.20
2022-12-09T05:14:00.714Z,9.20
2022-12-09T05:16:31.089Z,8.93
2022-12-09T05:19:03.441Z,9.83
2022-12-09T05:21:34.134Z,12.57
2022-12-09T05:24:09.985Z,11.80
2022-12-09T05:26:41.156Z,10.13
2022-12-09T05:29:11.680Z,12.10
2022-12-09T05:31:42.575Z,9.53
2022-12-09T05:34:13.088Z,10.80
2022-12-09T05:36:43.337Z,12.90
2022-12-09T05:39:18.304Z,9.73
2022-12-09T05:41:49.576Z,10.20
2022-12-09T05:44:20.438Z,23.77
2022-12-09T05:46:50.693Z,28.20
2022-12-09T05:49:21.209Z,16.97
2022-12-09T05:51:51.505Z,12.73
2022-12-09T05:54:24.561Z,12.70
2022-12-09T05:56:57.403Z,11.50
2022-12-09T05:59:28.177Z,15.60
2022-12-09T06:01:58.573Z,35.37
2022-12-09T06:04:28.745Z,323.00
2022-12-09T06:06:59.457Z,64.37
2022-12-09T06:09:33.016Z,14.70
2022-12-09T06:12:03.610Z,13.80
2022-12-09T06:14:34.259Z,10.87
2022-12-09T06:17:04.598Z,10.10
2022-12-09T06:19:35.080Z,14.90
2022-12-09T06:22:06.002Z,12.43
2022-12-09T06:24:38.943Z,10.90
2022-12-09T06:27:09.270Z,20.70
2022-12-09T06:29:39.718Z,64.83
2022-12-09T06:32:11.086Z,37.70
2022-12-09T06:34:42.343Z,27.40
2022-12-09T06:37:12.734Z,19.13
2022-12-09T06:39:45.612Z,20.37
2022-12-09T06:42:18.588Z,14.67
2022-12-09T06:44:48.934Z,13.67
2022-12-09T06:47:19.248Z,11.57
2022-12-09T06:50:05.892Z,11.73
2022-12-09T06:52:37.640Z,17.73
2022-12-09T06:55:14.366Z,12.77
2022-12-09T06:57:45.130Z,20.93
2022-12-09T07:00:17.902Z,24.53
2022-12-09T07:02:48.624Z,15.63
2022-12-09T07:05:19.577Z,14.77
2022-12-09T07:07:54.059Z,18.73
2022-12-09T07:10:27.970Z,18.03
2022-12-09T07:12:58.697Z,19.83
2022-12-09T07:15:31.593Z,23.43
2022-12-09T07:18:02.795Z,14.60
2022-12-09T07:20:33.315Z,14.03
2022-12-09T07:23:06.025Z,15.00
2022-12-09T07:25:39.011Z,13.33
2022-12-09T07:28:11.592Z,12.30
2022-12-09T07:30:42.045Z,12.07
2022-12-09T07:33:12.454Z,12.17
2022-12-09T07:35:43.193Z,19.10
2022-12-09T07:38:14.063Z,20.33
2022-12-09T07:40:46.905Z,15.57
2022-12-09T07:43:17.435Z,12.43
2022-12-09T07:45:49.459Z,14.60
2022-12-09T07:48:30.589Z,17.57
2022-12-09T07:51:03.478Z,20.43
2022-12-09T07:53:34.716Z,13.90
2022-12-09T07:56:14.818Z,13.17
2022-12-09T07:58:47.756Z,14.50
2022-12-09T08:01:21.760Z,12.00
2022-12-09T08:03:54.478Z,13.20
2022-12-09T08:06:28.507Z,11.70
2022-12-09T08:09:02.132Z,16.00
2022-12-09T08:11:36.775Z,13.60
2022-12-09T08:14:13.314Z,17.57
2022-12-09T08:16:44.758Z,12.57
2022-12-09T08:19:16.311Z,10.13
2022-12-09T08:21:52.818Z,10.37
2022-12-09T08:24:26.875Z,12.13
2022-12-09T08:27:00.473Z,9.83
2022-12-09T08:29:31.379Z,12.23
2022-12-09T08:32:01.637Z,13.37
2022-12-09T08:34:32.483Z,17.63
2022-12-09T08:37:03.184Z,11.80
2022-12-09T08:39:34.996Z,11.37
2022-12-09T08:42:08.577Z,13.30
2022-12-09T08:44:41.028Z,15.60
2022-12-09T08:47:11.652Z,12.37
2022-12-09T08:49:42.107Z,11.60
2022-12-09T08:52:12.271Z,13.63
2022-12-09T08:54:42.506Z,15.60
2022-12-09T08:57:15.515Z,13.43
2022-12-09T08:59:46.079Z,12.03
2022-12-09T09:02:24.647Z,11.93
2022-12-09T09:04:55.004Z,11.13
2022-12-09T09:07:25.781Z,12.07
2022-12-09T09:09:56.649Z,10.83
2022-12-09T09:12:29.866Z,15.33
2022-12-09T09:15:01.362Z,13.80
2022-12-09T09:17:31.747Z,18.63
2022-12-09T09:20:02.409Z,16.50
2022-12-09T09:22:32.775Z,13.60
2022-12-09T09:25:03.913Z,12.33
2022-12-09T09:27:37.948Z,12.87
2022-12-09T09:30:12.403Z,15.17
2022-12-09T09:32:43.268Z,12.97
2022-12-09T09:35:14.104Z,13.40
2022-12-09T09:37:44.741Z,38.00
2022-12-09T09:40:16.711Z,35.00
2022-12-09T09:42:53.660Z,17.57
2022-12-09T09:45:27.485Z,12.00
2022-12-09T09:48:04.776Z,11.10
2022-12-09T09:50:44.763Z,10.53
2022-12-09T09:53:24.071Z,10.77
2022-12-09T09:56:01.472Z,9.17
2022-12-09T09:58:44.437Z,9.53
2022-12-09T10:01:18.974Z,10.83
2022-12-09T10:04:01.498Z,9.83
2022-12-09T10:06:45.931Z,9.37
2022-12-09T10:09:30.281Z,10.07
2022-12-09T10:12:06.574Z,10.57
2022-12-09T10:14:55.509Z,10.30
2022-12-09T10:17:32.516Z,10.37
2022-12-09T10:20:12.423Z,8.20
2022-12-09T10:22:49.730Z,13.37
2022-12-09T10:25:28.376Z,8.17
2022-12-09T10:28:20.882Z,9.63
2022-12-09T10:30:56.612Z,9.20
2022-12-09T10:33:32.801Z,10.83
2022-12-09T10:36:03.575Z,9.23
2022-12-09T10:38:39.049Z,9.70
2022-12-09T10:41:46.252Z,8.60
2022-12-09T10:44:23.908Z,9.70
2022-12-09T10:47:06.337Z,9.60
2022-12-09T10:49:38.660Z,8.60
2022-12-09T10:52:09.308Z,11.23
2022-12-09T10:54:44.924Z,8.73
2022-12-09T10:57:29.786Z,8.10
2022-12-09T11:00:06.142Z,10.33
2022-12-09T11:02:39.717Z,22.10
2022-12-09T11:05:30.145Z,12.03
2022-12-09T11:08:02.108Z,10.87
2022-12-09T11:10:34.336Z,10.30
2022-12-09T11:13:11.743Z,10.93
2022-12-09T11:15:47.260Z,12.17
2022-12-09T11:18:28.482Z,12.50
2022-12-09T11:21:02.071Z,11.77
2022-12-09T11:23:33.621Z,13.03
2022-12-09T11:26:07.727Z,14.80
2022-12-09T11:28:40.541Z,15.77
2022-12-09T11:31:30.570Z,15.93
2022-12-09T11:34:16.423Z,14.33
2022-12-09T11:36:53.332Z,12.80
2022-12-09T11:39:30.495Z,10.47
2022-12-09T11:42:18.790Z,15.93
2022-12-09T11:45:00.124Z,16.60
2022-12-09T11:48:12.871Z,13.07
2022-12-09T11:50:34.654Z,15.67
2022-12-09T11:53:29.679Z,15.37
2022-12-09T11:56:09.428Z,13.03
2022-12-09T11:58:48.641Z,15.87
2022-12-09T12:01:27.470Z,15.13
2022-12-09T12:04:04.241Z,45.87
2022-12-09T12:06:47.123Z,33.20
2022-12-09T12:09:27.425Z,21.67
2022-12-09T12:12:08.462Z,27.00
2022-12-09T12:14:47.172Z,31.90
2022-12-09T12:17:27.406Z,32.00
2022-12-09T12:19:59.062Z,20.50
2022-12-09T12:22:58.624Z,14.70
2022-12-09T12:25:49.449Z,12.97
2022-12-09T12:29:03.942Z,32.40
2022-12-09T12:32:22.850Z,28.37
2022-12-09T12:35:16.532Z,19.63
2022-12-09T12:38:06.912Z,16.67
2022-12-09T12:40:51.650Z,14.73
2022-12-09T12:43:56.541Z,14.33
2022-12-09T12:46:47.210Z,14.17
2022-12-09T12:50:02.152Z,14.33
2022-12-09T12:52:55.981Z,14.00
2022-12-09T12:55:50.358Z,14.13
2022-12-09T12:58:38.068Z,15.03
2022-12-09T13:01:19.705Z,14.77
2022-12-09T13:04:03.875Z,12.77
2022-12-09T13:06:46.641Z,15.80
2022-12-09T13:09:24.862Z,47.80
2022-12-09T13:12:08.964Z,16.13
2022-12-09T13:14:53.166Z,21.07
2022-12-09T13:17:30.060Z,25.23
2022-12-09T13:20:05.134Z,60.63
2022-12-09T13:22:49.346Z,80.63
2022-12-09T13:25:30.810Z,13.37
2022-12-09T13:28:13.890Z,23.67
2022-12-09T13:30:55.553Z,23.60
2022-12-09T13:33:43.816Z,17.07
2022-12-09T13:36:23.905Z,15.07
2022-12-09T13:38:54.064Z,101.70
2022-12-09T13:41:57.878Z,66.33
2022-12-09T13:44:40.269Z,23.37
2022-12-09T13:47:36.181Z,18.57
2022-12-09T13:50:27.429Z,16.93
2022-12-09T13:53:02.500Z,14.27
2022-12-09T13:55:51.953Z,17.83
2022-12-09T13:59:17.142Z,17.27
2022-12-09T14:01:55.504Z,17.53
2022-12-09T14:04:33.089Z,16.57
2022-12-09T14:07:17.424Z,16.83
2022-12-09T14:09:56.410Z,19.60
2022-12-09T14:13:21.787Z,19.03
2022-12-09T14:16:18.539Z,20.97
2022-12-09T14:18:53.657Z,24.77
2022-12-09T14:21:33.634Z,22.83
2022-12-09T14:24:35.451Z,22.57
2022-12-09T14:27:21.343Z,22.00
2022-12-09T14:29:58.079Z,23.83
2022-12-09T14:32:35.029Z,23.57
2022-12-09T14:35:31.924Z,23.63
2022-12-09T14:38:20.512Z,24.00
2022-12-09T14:41:03.703Z,22.93
2022-12-09T14:44:00.916Z,21.23
2022-12-09T14:46:35.639Z,23.57
2022-12-09T14:49:16.160Z,23.63
2022-12-09T14:51:53.240Z,26.17
2022-12-09T14:54:32.865Z,25.23
2022-12-09T14:57:16.006Z,29.40
2022-12-09T14:59:52.978Z,21.93
2022-12-09T15:02:29.810Z,21.60
2022-12-09T15:05:02.715Z,23.73
2022-12-09T15:07:37.445Z,26.10
2022-12-09T15:10:20.718Z,24.43
2022-12-09T15:12:54.746Z,23.00
2022-12-09T15:15:29.417Z,20.23
2022-12-09T15:18:03.799Z,23.27
2022-12-09T15:20:37.996Z,22.90
2022-12-09T15:23:22.805Z,23.03
2022-12-09T15:25:56.830Z,22.87
2022-12-09T15:28:29.495Z,22.73
2022-12-09T15:31:02.967Z,25.07
2022-12-09T15:33:42.121Z,24.43
2022-12-09T15:36:17.611Z,20.40
2022-12-09T15:38:55.942Z,21.03
2022-12-09T15:41:41.825Z,22.30
2022-12-09T15:44:19.258Z,27.07
2022-12-09T15:46:54.740Z,24.77
2022-12-09T15:49:30.536Z,23.83
2022-12-09T15:52:03.829Z,27.17
2022-12-09T15:54:43.175Z,25.73
2022-12-09T15:57:18.402Z,24.17
2022-12-09T15:59:56.042Z,30.43
2022-12-09T16:02:32.221Z,27.50
2022-12-09T16:05:08.296Z,27.47
2022-12-09T16:07:39.448Z,25.17
2022-12-09T16:10:17.194Z,24.73
2022-12-09T16:12:47.602Z,33.53
2022-12-09T16:15:47.717Z,29.03
2022-12-09T16:18:23.588Z,32.70
2022-12-09T16:21:23.821Z,25.03
2022-12-09T16:23:58.603Z,26.20
2022-12-09T16:26:39.729Z,30.23
2022-12-09T16:29:22.882Z,25.37
2022-12-09T16:32:24.937Z,26.10
2022-12-09T16:34:57.871Z,25.33
2022-12-09T16:37:38.476Z,27.13
2022-12-09T16:41:10.587Z,25.93
2022-12-09T16:43:58.920Z,27.10
2022-12-09T16:46:42.678Z,27.00
2022-12-09T16:49:12.965Z,28.40
2022-12-09T16:51:44.014Z,30.90
2022-12-09T16:54:21.074Z,31.00
2022-12-09T16:56:52.256Z,41.50
2022-12-09T16:59:28.973Z,29.47
2022-12-09T17:02:04.910Z,30.27
2022-12-09T17:04:35.062Z,23.93
2022-12-09T17:07:05.142Z,28.90
2022-12-09T17:09:35.351Z,29.60
2022-12-09T17:12:05.484Z,28.00
2022-12-09T17:14:38.253Z,29.93
2022-12-09T17:17:08.371Z,28.97
2022-12-09T17:19:38.517Z,31.53
2022-12-09T17:22:08.623Z,36.63
2022-12-09T17:24:39.050Z,32.87
2022-12-09T17:27:09.118Z,34.90
2022-12-09T17:29:41.977Z,36.43
2022-12-09T17:32:12.142Z,32.37
2022-12-09T17:34:42.695Z,35.03
2022-12-09T17:37:13.246Z,32.70
2022-12-09T17:39:43.357Z,35.87
2022-12-09T17:42:13.432Z,38.73
2022-12-09T17:44:46.304Z,33.83
2022-12-09T17:47:16.426Z,30.43
2022-12-09T17:49:46.592Z,40.07
2022-12-09T17:52:16.846Z,41.13
2022-12-09T17:54:47.164Z,42.90
2022-12-09T17:57:17.291Z,35.67
2022-12-09T17:59:50.055Z,42.07
2022-12-09T18:02:20.185Z,43.07
2022-12-09T18:04:50.315Z,72.67
2022-12-09T18:07:20.549Z,46.00
2022-12-09T18:09:54.533Z,43.87
2022-12-09T18:12:24.893Z,45.87
2022-12-09T18:14:57.597Z,52.83
2022-12-09T18:17:27.714Z,44.23
2022-12-09T18:19:57.816Z,45.07
2022-12-09T18:22:35.910Z,42.53
2022-12-09T18:25:06.175Z,52.60
2022-12-09T18:27:36.407Z,51.83
2022-12-09T18:30:11.587Z,48.33
2022-12-09T18:32:41.883Z,49.37
2022-12-09T18:35:13.778Z,55.60
2022-12-09T18:37:43.861Z,60.27
2022-12-09T18:40:21.210Z,57.20
2022-12-09T18:42:51.564Z,56.47
2022-12-09T18:45:26.698Z,41.93
2022-12-09T18:47:56.843Z,42.70
2022-12-09T18:50:26.958Z,44.83
2022-12-09T18:53:10.506Z,54.23
2022-12-09T18:55:44.850Z,45.60
2022-12-09T18:58:36.554Z,43.23
2022-12-09T19:01:24.735Z,46.67
2022-12-09T19:03:58.857Z,52.20
2022-12-09T19:06:32.188Z,56.53
2022-12-09T19:09:05.003Z,51.47
2022-12-09T19:11:37.100Z,46.00
2022-12-09T19:14:09.505Z,46.30
2022-12-09T19:16:43.129Z,39.63
2022-12-09T19:19:18.413Z,40.10
2022-12-09T19:21:53.400Z,42.80
2022-12-09T19:24:28.354Z,41.07
2022-12-09T19:27:00.266Z,42.30
2022-12-09T19:29:31.045Z,39.83
2022-12-09T19:32:04.330Z,39.20
2022-12-09T19:34:35.753Z,38.90
2022-12-09T19:37:44.108Z,67.47
2022-12-09T19:40:15.178Z,52.17
2022-12-09T19:42:54.039Z,45.00
2022-12-09T19:45:24.810Z,51.30
2022-12-09T19:47:58.700Z,44.63
2022-12-09T19:50:28.742Z,40.50
2022-12-09T19:52:58.900Z,45.13
2022-12-09T19:55:29.044Z,41.60
2022-12-09T19:58:01.980Z,38.33
2022-12-09T20:00:35.602Z,38.23
2022-12-09T20:03:11.000Z,35.83
2022-12-09T20:05:50.090Z,34.93
2022-12-09T20:08:20.481Z,33.67
2022-12-09T20:10:52.406Z,32.77
2022-12-09T20:13:26.081Z,35.63
2022-12-09T20:15:58.831Z,34.23
2022-12-09T20:18:31.516Z,34.63
2022-12-09T20:21:04.644Z,39.17
2022-12-09T20:23:35.034Z,40.50
2022-12-09T20:26:09.388Z,39.90
2022-12-09T20:28:41.198Z,37.07
2022-12-09T20:31:14.429Z,39.03
2022-12-09T20:33:47.299Z,33.03
2022-12-09T20:36:21.538Z,38.20
2022-12-09T20:38:54.075Z,38.50
2022-12-09T20:41:26.069Z,51.90
2022-12-09T20:43:59.595Z,52.70
2022-12-09T20:46:32.401Z,53.20
2022-12-09T20:49:05.170Z,51.33
2022-12-09T20:51:38.075Z,39.97
2022-12-09T20:54:09.886Z,35.50
2022-12-09T20:56:40.573Z,40.43
2022-12-09T20:59:13.671Z,41.23
2022-12-09T21:01:47.262Z,74.50
2022-12-09T21:04:20.310Z,123.53
2022-12-09T21:06:50.459Z,227.00
2022-12-09T21:09:27.093Z,185.77
2022-12-09T21:11:58.486Z,63.30
2022-12-09T21:14:33.796Z,51.87
2022-12-09T21:17:04.358Z,53.30
2022-12-09T21:19:37.026Z,53.63
2022-12-09T21:22:07.372Z,47.27
2022-12-09T21:24:37.459Z,51.27
2022-12-09T21:27:07.903Z,50.43
2022-12-09T21:29:37.984Z,43.43
2022-12-09T21:32:08.404Z,42.47
2022-12-09T21:34:41.183Z,42.97
2022-12-09T21:37:11.308Z,44.87
2022-12-09T21:39:41.366Z,42.77
2022-12-09T21:42:11.546Z,43.70
2022-12-09T21:44:42.299Z,39.30
2022-12-09T21:47:12.456Z,38.33
2022-12-09T21:49:45.127Z,38.70
2022-12-09T21:52:15.382Z,37.17
2022-12-09T21:54:45.482Z,36.17
2022-12-09T21:57:15.700Z,40.47
2022-12-09T21:59:45.782Z,40.47
2022-12-09T22:02:15.936Z,35.27
2022-12-09T22:04:48.764Z,37.43
2022-12-09T22:07:18.844Z,38.70
2022-12-09T22:09:49.174Z,35.43
2022-12-09T22:12:19.259Z,38.40
2022-12-09T22:14:49.409Z,36.87
2022-12-09T22:17:19.522Z,34.77
2022-12-09T22:20:13.647Z,35.07
2022-12-09T22:22:43.206Z,37.50
2022-12-09T22:25:14.061Z,34.03
2022-12-09T22:27:44.156Z,32.63
2022-12-09T22:30:16.194Z,36.33
2022-12-09T22:32:50.557Z,45.00
2022-12-09T22:35:23.786Z,37.83
2022-12-09T22:37:53.872Z,37.00
2022-12-09T22:40:23.981Z,38.30
2022-12-09T22:42:54.139Z,34.93
2022-12-09T22:45:24.279Z,33.57
2022-12-09T22:47:57.335Z,36.27
2022-12-09T22:50:30.438Z,33.73
2022-12-09T22:53:00.585Z,41.03
2022-12-09T22:55:30.785Z,43.23
2022-12-09T22:58:00.862Z,37.47
2022-12-09T23:00:31.430Z,34.63
2022-12-09T23:03:01.537Z,38.50
2022-12-09T23:05:35.001Z,40.63
2022-12-09T23:08:05.297Z,44.03
2022-12-09T23:10:35.974Z,36.87
2022-12-09T23:13:06.122Z,40.40
2022-12-09T23:15:36.584Z,39.67
2022-12-09T23:18:07.091Z,41.27
2022-12-09T23:20:39.799Z,37.83
2022-12-09T23:23:09.880Z,37.67
2022-12-09T23:25:40.044Z,47.40
2022-12-09T23:28:12.369Z,48.80
2022-12-09T23:30:42.541Z,41.40
2022-12-09T23:33:12.642Z,46.77
2022-12-09T23:35:45.376Z,48.43
2022-12-09T23:38:15.422Z,49.33
2022-12-09T23:40:53.894Z,44.40
2022-12-09T23:43:24.050Z,45.83
2022-12-09T23:45:54.149Z,47.53
2022-12-09T23:48:27.223Z,47.87
2022-12-09T23:51:00.475Z,47.53
2022-12-09T23:53:31.154Z,45.90
2022-12-09T23:56:01.267Z,46.13
2022-12-09T23:58:33.476Z,44.07
